Time;durP1;ratioP1;P1;durP2;ratioP2;P2;SDS_P1;SDS_P2;PMS_P1;PMS_P2;Temp;Humidity;BMP_temperature;BMP_pressure;BME280_temperature;BME280_humidity;BME280_pressure;Samples;Min_cycle;Max_cycle;Signal;HPM_P1;HPM_P2
2023/12/01 00:07:05;;;;;;;;;;;1.20;99.90;;;;;;21195920;27;20260;-87
2023/12/01 00:17:06;;;;;;;;;;;1.20;99.90;;;;;;21190680;27;20472;-86
2023/12/01 00:27:07;;;;;;;;;;;1.20;99.90;;;;;;21176074;27;20057;-86
2023/12/01 00:37:29;;;;;;;;;;;1.30;99.90;;;;;;21197536;27;19915;-86
2023/12/01 00:47:30;;;;;;;;;;;1.30;99.90;;;;;;21182129;27;19918;-86
2023/12/01 00:57:31;;;;;;;;;;;1.30;99.90;;;;;;21188700;27;19915;-87
2023/12/01 01:07:32;;;;;;;;;;;1.30;99.90;;;;;;21205762;28;19950;-85
2023/12/01 01:17:38;;;;;;;;;;;1.30;99.90;;;;;;21189269;28;19921;-85
2023/12/01 01:27:39;;;;;;;;;;;1.30;99.90;;;;;;21207055;27;19919;-87
2023/12/01 01:37:40;;;;;;;;;;;1.40;99.90;;;;;;21217428;27;19922;-86
2023/12/01 01:47:41;;;;;;;;;;;1.40;99.90;;;;;;21199671;27;19918;-87
2023/12/01 01:57:45;;;;;;;;;;;1.40;99.90;;;;;;21217876;27;20006;-86
2023/12/01 02:07:47;;;;;;;;;;;1.30;99.90;;;;;;21224056;27;20022;-86
2023/12/01 02:17:48;;;;;;;;;;;1.30;99.90;;;;;;21208657;27;19970;-85
2023/12/01 02:27:48;;;;;;;;;;;1.30;99.90;;;;;;21244137;27;20011;-86
2023/12/01 02:37:49;;;;;;;;;;;1.40;99.90;;;;;;21187059;27;19916;-85
2023/12/01 02:47:50;;;;;;;;;;;1.40;99.90;;;;;;21193244;27;19958;-86
2023/12/01 02:57:50;;;;;;;;;;;1.40;99.90;;;;;;21219067;27;19915;-85
2023/12/01 03:07:51;;;;;;;;;;;1.40;99.90;;;;;;21204282;27;19934;-86
2023/12/01 03:17:52;;;;;;;;;;;1.40;99.90;;;;;;21210368;27;19923;-86
2023/12/01 03:27:53;;;;;;;;;;;1.40;99.90;;;;;;21191227;27;19937;-86
2023/12/01 03:37:57;;;;;;;;;;;1.50;99.90;;;;;;21211056;27;19920;-86
2023/12/01 03:47:58;;;;;;;;;;;1.40;99.90;;;;;;21223418;27;19911;-86
2023/12/01 03:57:59;;;;;;;;;;;1.40;99.90;;;;;;21209446;27;19981;-84
2023/12/01 04:07:59;;;;;;;;;;;1.40;99.90;;;;;;21215323;27;20005;-86
2023/12/01 04:18:06;;;;;;;;;;;1.50;99.90;;;;;;21217122;27;19915;-87
2023/12/01 04:28:07;;;;;;;;;;;1.40;99.90;;;;;;21200899;27;19912;-88
2023/12/01 04:38:09;;;;;;;;;;;1.40;99.90;;;;;;21182108;27;19922;-87
2023/12/01 04:48:09;;;;;;;;;;;1.50;99.90;;;;;;21201225;27;19922;-87
2023/12/01 04:58:10;;;;;;;;;;;1.50;99.90;;;;;;21233714;27;19915;-86
2023/12/01 05:08:11;;;;;;;;;;;1.60;99.90;;;;;;21155846;27;19919;-86
2023/12/01 05:18:12;;;;;;;;;;;1.60;99.90;;;;;;21132409;28;19987;-88
2023/12/01 05:28:13;;;;;;;;;;;1.60;99.90;;;;;;21100417;28;19912;-87
2023/12/01 05:38:16;;;;;;;;;;;1.40;99.90;;;;;;21116597;28;19916;-86
2023/12/01 05:48:16;;;;;;;;;;;1.40;99.90;;;;;;21202606;27;20363;-87
2023/12/01 05:58:17;;;;;;;;;;;1.50;99.90;;;;;;21228275;27;20403;-85
2023/12/01 06:08:18;;;;;;;;;;;1.50;99.90;;;;;;21274925;27;19954;-85
2023/12/01 06:18:21;;;;;;;;;;;1.40;99.90;;;;;;21229966;27;20671;-84
2023/12/01 06:28:23;;;;;;;;;;;1.40;99.90;;;;;;21273273;27;20086;-84
2023/12/01 06:38:24;;;;;;;;;;;1.40;99.90;;;;;;21254365;27;19938;-82
2023/12/01 06:48:25;;;;;;;;;;;1.40;99.90;;;;;;21194745;27;20006;-86
2023/12/01 06:58:26;;;;;;;;;;;1.50;99.90;;;;;;21239608;27;19922;-83
2023/12/01 07:08:26;;;;;;;;;;;1.50;99.90;;;;;;21276732;27;19912;-86
2023/12/01 07:18:27;;;;;;;;;;;1.60;99.90;;;;;;21258757;27;19924;-84
2023/12/01 07:28:28;;;;;;;;;;;1.50;99.90;;;;;;21243809;27;19911;-84
2023/12/01 07:38:28;;;;;;;;;;;1.50;99.90;;;;;;21208319;27;20328;-85
2023/12/01 07:48:29;;;;;;;;;;;1.60;99.90;;;;;;21181865;27;20366;-85
2023/12/01 07:58:30;;;;;;;;;;;1.70;99.90;;;;;;21208773;27;19916;-85
2023/12/01 08:08:30;;;;;;;;;;;1.80;99.90;;;;;;21230819;27;19915;-86
2023/12/01 08:18:31;;;;;;;;;;;1.80;99.90;;;;;;21225718;27;19921;-87
2023/12/01 08:28:32;;;;;;;;;;;1.80;99.90;;;;;;21259405;27;19911;-86
2023/12/01 08:38:33;;;;;;;;;;;1.80;99.90;;;;;;21223357;27;19945;-87
2023/12/01 08:48:34;;;;;;;;;;;2.00;99.90;;;;;;21224625;27;19911;-87
2023/12/01 08:58:35;;;;;;;;;;;2.00;99.90;;;;;;21230904;27;19969;-85
2023/12/01 09:08:36;;;;;;;;;;;2.30;99.90;;;;;;21215020;27;19912;-86
2023/12/01 09:18:36;;;;;;;;;;;2.50;99.90;;;;;;21165690;28;19923;-85
2023/12/01 09:28:37;;;;;;;;;;;2.60;99.90;;;;;;21180820;27;19916;-87
2023/12/01 09:38:38;;;;;;;;;;;2.70;99.90;;;;;;21231283;28;20350;-86
2023/12/01 09:48:40;;;;;;;;;;;3.00;99.90;;;;;;21197788;27;19919;-84
2023/12/01 09:58:42;;;;;;;;;;;3.00;99.90;;;;;;21234681;27;20374;-84
2023/12/01 10:08:42;;;;;;;;;;;2.70;99.90;;;;;;21198972;27;19912;-85
2023/12/01 10:18:55;;;;;;;;;;;2.50;99.90;;;;;;21117868;28;19920;-85
2023/12/01 10:28:57;;;;;;;;;;;2.70;99.90;;;;;;21153350;27;19916;-84
2023/12/01 10:38:58;;;;;;;;;;;2.70;99.90;;;;;;21248384;27;19959;-84
2023/12/01 10:48:59;;;;;;;;;;;2.50;99.90;;;;;;21250887;27;19916;-85
2023/12/01 10:59:01;;;;;;;;;;;2.40;99.90;;;;;;21266267;27;19926;-83
2023/12/01 11:09:01;;;;;;;;;;;2.60;99.90;;;;;;21249310;27;19919;-84
2023/12/01 11:19:02;;;;;;;;;;;2.50;99.90;;;;;;21172649;28;19915;-84
2023/12/01 11:29:04;;;;;;;;;;;2.50;99.90;;;;;;21166370;28;19912;-84
2023/12/01 11:49:14;;;;;;;;;;;2.30;99.90;;;;;;21176272;28;19916;-83
2023/12/01 11:59:15;;;;;;;;;;;2.40;99.90;;;;;;21193263;28;19927;-84
2023/12/01 12:09:19;;;;;;;;;;;2.60;99.90;;;;;;21174150;28;19912;-84
2023/12/01 12:19:21;;;;;;;;;;;2.80;99.90;;;;;;21156109;28;19977;-84
2023/12/01 12:29:23;;;;;;;;;;;2.90;99.90;;;;;;21164671;28;19947;-84
2023/12/01 12:39:27;;;;;;;;;;;3.00;99.90;;;;;;21163476;28;19949;-85
2023/12/01 12:49:34;;;;;;;;;;;3.10;99.90;;;;;;21174379;28;20302;-87
2023/12/01 12:59:34;;;;;;;;;;;3.10;99.90;;;;;;21171248;28;19920;-86
2023/12/01 13:09:37;;;;;;;;;;;3.10;99.90;;;;;;21152483;28;19999;-84
2023/12/01 13:19:38;;;;;;;;;;;3.00;99.90;;;;;;21170415;28;20014;-84
2023/12/01 13:29:38;;;;;;;;;;;3.00;99.90;;;;;;21185807;28;19912;-85
2023/12/01 13:39:39;;;;;;;;;;;2.90;99.90;;;;;;21171294;28;20422;-86
2023/12/01 13:49:40;;;;;;;;;;;2.80;99.90;;;;;;21182729;28;20001;-86
2023/12/01 13:59:40;;;;;;;;;;;2.60;99.90;;;;;;21108217;28;19916;-86
2023/12/01 14:09:41;;;;;;;;;;;2.70;99.90;;;;;;21074967;28;19970;-85
2023/12/01 14:19:42;;;;;;;;;;;2.70;99.90;;;;;;21079743;28;20390;-85
2023/12/01 14:29:43;;;;;;;;;;;2.70;99.90;;;;;;21103131;28;19916;-86
2023/12/01 14:39:44;;;;;;;;;;;2.60;99.90;;;;;;21087407;28;19959;-86
2023/12/01 14:49:44;;;;;;;;;;;2.50;99.90;;;;;;21274205;27;19927;-84
2023/12/01 14:59:45;;;;;;;;;;;2.50;99.90;;;;;;21295560;27;19922;-84
2023/12/01 15:09:46;;;;;;;;;;;2.30;99.90;;;;;;21261218;27;19912;-83
2023/12/01 15:19:46;;;;;;;;;;;1.90;99.90;;;;;;21274782;27;19922;-85
2023/12/01 15:29:47;;;;;;;;;;;1.80;99.90;;;;;;21245389;27;20355;-87
2023/12/01 15:39:48;;;;;;;;;;;1.60;99.90;;;;;;21194279;27;19955;-86
2023/12/01 15:49:49;;;;;;;;;;;1.50;99.90;;;;;;21196201;27;20291;-86
2023/12/01 15:59:49;;;;;;;;;;;1.30;99.90;;;;;;21214002;27;20418;-86
2023/12/01 16:09:51;;;;;;;;;;;1.30;99.90;;;;;;21208022;27;19919;-85
2023/12/01 16:19:51;;;;;;;;;;;1.20;99.90;;;;;;21157901;27;19915;-85
2023/12/01 16:29:52;;;;;;;;;;;1.10;99.90;;;;;;21195028;27;20476;-87
2023/12/01 16:39:53;;;;;;;;;;;1.10;99.90;;;;;;21186245;27;20306;-87
2023/12/01 16:49:54;;;;;;;;;;;1.00;99.90;;;;;;21202360;27;20278;-88
2023/12/01 16:59:54;;;;;;;;;;;1.00;99.90;;;;;;21164832;27;19916;-85
2023/12/01 17:09:55;;;;;;;;;;;1.00;99.90;;;;;;21164108;28;19957;-84
2023/12/01 17:19:56;;;;;;;;;;;0.90;99.90;;;;;;21149307;28;19922;-85
2023/12/01 17:29:57;;;;;;;;;;;1.00;99.90;;;;;;21153694;28;19912;-87
2023/12/01 17:39:58;;;;;;;;;;;1.00;99.90;;;;;;21140870;28;20306;-85
2023/12/01 17:50:00;;;;;;;;;;;1.10;99.90;;;;;;21154248;28;19916;-86
2023/12/01 18:00:01;;;;;;;;;;;1.10;99.90;;;;;;21134401;28;20310;-86
2023/12/01 18:10:02;;;;;;;;;;;1.20;99.90;;;;;;21145959;28;19958;-85
2023/12/01 18:20:03;;;;;;;;;;;1.30;99.90;;;;;;21156567;28;20384;-85
2023/12/01 18:30:04;;;;;;;;;;;1.30;99.90;;;;;;21156486;27;19957;-86
2023/12/01 18:40:05;;;;;;;;;;;1.30;99.90;;;;;;21143113;28;20371;-86
2023/12/01 18:50:06;;;;;;;;;;;1.10;99.90;;;;;;21235507;27;20427;-86
2023/12/01 19:00:07;;;;;;;;;;;1.00;99.90;;;;;;21201228;27;19916;-86
2023/12/01 19:10:08;;;;;;;;;;;0.90;99.90;;;;;;21195044;27;20014;-88
2023/12/01 19:20:09;;;;;;;;;;;0.90;99.90;;;;;;21199397;27;19922;-87
2023/12/01 19:30:10;;;;;;;;;;;0.80;99.90;;;;;;21214057;27;19912;-86
2023/12/01 19:40:11;;;;;;;;;;;0.80;99.90;;;;;;21108076;27;19995;-85
2023/12/01 19:50:11;;;;;;;;;;;0.70;99.90;;;;;;21234004;27;19911;-88
2023/12/01 20:00:12;;;;;;;;;;;0.80;99.90;;;;;;21207873;27;20481;-89
2023/12/01 20:10:13;;;;;;;;;;;0.80;99.90;;;;;;21157632;27;19915;-87
2023/12/01 20:20:14;;;;;;;;;;;0.70;99.90;;;;;;21143426;27;19954;-89
2023/12/01 20:30:15;;;;;;;;;;;0.60;99.90;;;;;;21177168;27;19953;-86
2023/12/01 20:40:15;;;;;;;;;;;0.60;99.90;;;;;;21151678;27;19919;-86
2023/12/01 20:50:16;;;;;;;;;;;0.60;99.90;;;;;;21199156;27;19915;-85
2023/12/01 21:00:17;;;;;;;;;;;0.60;99.90;;;;;;21178705;27;19916;-86
2023/12/01 21:10:18;;;;;;;;;;;0.50;99.90;;;;;;21166562;28;19912;-86
2023/12/01 21:20:19;;;;;;;;;;;0.50;99.90;;;;;;21156969;28;19958;-87
2023/12/01 21:30:19;;;;;;;;;;;0.50;99.90;;;;;;21167281;28;19965;-87
2023/12/01 21:40:20;;;;;;;;;;;0.50;99.90;;;;;;21158738;28;19919;-88
2023/12/01 21:50:21;;;;;;;;;;;0.50;99.90;;;;;;21162531;27;19911;-87
2023/12/01 22:00:22;;;;;;;;;;;0.50;99.90;;;;;;21159745;27;19915;-88
2023/12/01 22:10:22;;;;;;;;;;;0.50;99.90;;;;;;21142691;27;19916;-86
2023/12/01 22:20:23;;;;;;;;;;;0.50;99.90;;;;;;21175417;28;19928;-85
2023/12/01 22:30:24;;;;;;;;;;;0.50;99.90;;;;;;21157769;28;19915;-84
2023/12/01 22:40:27;;;;;;;;;;;0.50;99.90;;;;;;21154920;28;19953;-85
2023/12/01 22:50:28;;;;;;;;;;;0.50;99.90;;;;;;21144543;27;19919;-85
2023/12/01 23:00:33;;;;;;;;;;;0.50;99.90;;;;;;21134393;27;19915;-85
2023/12/01 23:10:33;;;;;;;;;;;0.50;99.90;;;;;;21169391;27;19990;-86
2023/12/01 23:20:34;;;;;;;;;;;0.50;99.90;;;;;;21144475;27;19922;-85
2023/12/01 23:30:35;;;;;;;;;;;0.50;99.90;;;;;;21069160;28;20333;-85
2023/12/01 23:40:35;;;;;;;;;;;0.50;99.90;;;;;;21138279;28;19915;-86
2023/12/01 23:50:36;;;;;;;;;;;0.50;99.90;;;;;;21138985;28;20014;-85
